sensor_id;sensor_type;location;lat;lon;timestamp;pressure;altitude;pressure_sealevel;temperature
29423;BMP180;16399;51.686;8.684;2023-07-30T00:00:20;99201.00;;;16.90
29423;BMP180;16399;51.686;8.684;2023-07-30T00:03:23;99193.00;;;16.90
29423;BMP180;16399;51.686;8.684;2023-07-30T00:06:25;99214.00;;;16.90
29423;BMP180;16399;51.686;8.684;2023-07-30T00:09:27;99218.00;;;17.00
29423;BMP180;16399;51.686;8.684;2023-07-30T00:12:30;99210.00;;;17.00
29423;BMP180;16399;51.686;8.684;2023-07-30T00:15:33;99217.00;;;17.00
29423;BMP180;16399;51.686;8.684;2023-07-30T00:18:35;99212.00;;;17.00
29423;BMP180;16399;51.686;8.684;2023-07-30T00:21:37;99213.00;;;17.00
29423;BMP180;16399;51.686;8.684;2023-07-30T00:24:39;99215.00;;;17.10
29423;BMP180;16399;51.686;8.684;2023-07-30T00:27:42;99215.00;;;17.10
29423;BMP180;16399;51.686;8.684;2023-07-30T00:30:44;99218.00;;;17.10
29423;BMP180;16399;51.686;8.684;2023-07-30T00:33:47;99215.00;;;17.10
29423;BMP180;16399;51.686;8.684;2023-07-30T00:36:49;99220.00;;;17.10
29423;BMP180;16399;51.686;8.684;2023-07-30T00:39:52;99221.00;;;17.20
29423;BMP180;16399;51.686;8.684;2023-07-30T00:42:54;99224.00;;;17.20
29423;BMP180;16399;51.686;8.684;2023-07-30T00:45:56;99224.00;;;17.20
29423;BMP180;16399;51.686;8.684;2023-07-30T00:48:59;99221.00;;;17.20
29423;BMP180;16399;51.686;8.684;2023-07-30T00:52:01;99224.00;;;17.20
29423;BMP180;16399;51.686;8.684;2023-07-30T00:55:04;99227.00;;;17.20
29423;BMP180;16399;51.686;8.684;2023-07-30T00:58:08;99224.00;;;17.20
29423;BMP180;16399;51.686;8.684;2023-07-30T01:01:12;99229.00;;;17.20
29423;BMP180;16399;51.686;8.684;2023-07-30T01:04:17;99241.00;;;17.30
29423;BMP180;16399;51.686;8.684;2023-07-30T01:07:19;99233.00;;;17.30
29423;BMP180;16399;51.686;8.684;2023-07-30T01:10:22;99232.00;;;17.30
29423;BMP180;16399;51.686;8.684;2023-07-30T01:13:25;99235.00;;;17.30
29423;BMP180;16399;51.686;8.684;2023-07-30T01:16:28;99233.00;;;17.30
29423;BMP180;16399;51.686;8.684;2023-07-30T01:19:31;99242.00;;;17.30
29423;BMP180;16399;51.686;8.684;2023-07-30T01:22:33;99243.00;;;17.20
29423;BMP180;16399;51.686;8.684;2023-07-30T01:25:36;99241.00;;;17.20
29423;BMP180;16399;51.686;8.684;2023-07-30T01:28:42;99248.00;;;17.20
29423;BMP180;16399;51.686;8.684;2023-07-30T01:31:46;99253.00;;;17.20
29423;BMP180;16399;51.686;8.684;2023-07-30T01:34:57;99252.00;;;17.10
29423;BMP180;16399;51.686;8.684;2023-07-30T01:37:55;99253.00;;;17.10
29423;BMP180;16399;51.686;8.684;2023-07-30T01:40:58;99260.00;;;17.10
29423;BMP180;16399;51.686;8.684;2023-07-30T01:44:01;99262.00;;;17.00
29423;BMP180;16399;51.686;8.684;2023-07-30T01:47:03;99265.00;;;17.00
29423;BMP180;16399;51.686;8.684;2023-07-30T01:50:06;99261.00;;;17.00
29423;BMP180;16399;51.686;8.684;2023-07-30T01:53:08;99272.00;;;17.00
29423;BMP180;16399;51.686;8.684;2023-07-30T01:56:10;99265.00;;;16.90
29423;BMP180;16399;51.686;8.684;2023-07-30T01:59:12;99274.00;;;16.90
29423;BMP180;16399;51.686;8.684;2023-07-30T02:02:15;99267.00;;;16.90
29423;BMP180;16399;51.686;8.684;2023-07-30T02:05:17;99271.00;;;16.80
29423;BMP180;16399;51.686;8.684;2023-07-30T02:08:19;99266.00;;;16.70
29423;BMP180;16399;51.686;8.684;2023-07-30T02:11:22;99264.00;;;16.70
29423;BMP180;16399;51.686;8.684;2023-07-30T02:14:24;99271.00;;;16.60
29423;BMP180;16399;51.686;8.684;2023-07-30T02:17:26;99273.00;;;16.60
29423;BMP180;16399;51.686;8.684;2023-07-30T02:20:28;99265.00;;;16.50
29423;BMP180;16399;51.686;8.684;2023-07-30T02:23:31;99271.00;;;16.50
29423;BMP180;16399;51.686;8.684;2023-07-30T02:26:33;99273.00;;;16.40
29423;BMP180;16399;51.686;8.684;2023-07-30T02:29:35;99269.00;;;16.40
29423;BMP180;16399;51.686;8.684;2023-07-30T02:32:37;99264.00;;;16.40
29423;BMP180;16399;51.686;8.684;2023-07-30T02:35:40;99272.00;;;16.30
29423;BMP180;16399;51.686;8.684;2023-07-30T02:38:42;99271.00;;;16.30
29423;BMP180;16399;51.686;8.684;2023-07-30T02:41:44;99272.00;;;16.30
29423;BMP180;16399;51.686;8.684;2023-07-30T02:44:47;99279.00;;;16.20
29423;BMP180;16399;51.686;8.684;2023-07-30T02:47:49;99276.00;;;16.20
29423;BMP180;16399;51.686;8.684;2023-07-30T02:50:51;99274.00;;;16.10
29423;BMP180;16399;51.686;8.684;2023-07-30T02:53:57;99276.00;;;16.10
29423;BMP180;16399;51.686;8.684;2023-07-30T02:57:00;99285.00;;;16.00
29423;BMP180;16399;51.686;8.684;2023-07-30T03:00:02;99288.00;;;16.00
29423;BMP180;16399;51.686;8.684;2023-07-30T03:03:05;99288.00;;;15.90
29423;BMP180;16399;51.686;8.684;2023-07-30T03:06:07;99291.00;;;15.80
29423;BMP180;16399;51.686;8.684;2023-07-30T03:09:10;99295.00;;;15.70
29423;BMP180;16399;51.686;8.684;2023-07-30T03:12:12;99288.00;;;15.60
29423;BMP180;16399;51.686;8.684;2023-07-30T03:15:15;99288.00;;;15.60
29423;BMP180;16399;51.686;8.684;2023-07-30T03:18:17;99296.00;;;15.50
29423;BMP180;16399;51.686;8.684;2023-07-30T03:21:19;99289.00;;;15.50
29423;BMP180;16399;51.686;8.684;2023-07-30T03:24:21;99298.00;;;15.40
29423;BMP180;16399;51.686;8.684;2023-07-30T03:27:24;99293.00;;;15.40
29423;BMP180;16399;51.686;8.684;2023-07-30T03:30:26;99296.00;;;15.30
29423;BMP180;16399;51.686;8.684;2023-07-30T03:33:28;99283.00;;;15.20
29423;BMP180;16399;51.686;8.684;2023-07-30T03:36:30;99295.00;;;15.20
29423;BMP180;16399;51.686;8.684;2023-07-30T03:39:33;99300.00;;;15.10
29423;BMP180;16399;51.686;8.684;2023-07-30T03:42:35;99306.00;;;15.10
29423;BMP180;16399;51.686;8.684;2023-07-30T03:45:37;99295.00;;;15.10
29423;BMP180;16399;51.686;8.684;2023-07-30T03:48:40;99304.00;;;15.00
29423;BMP180;16399;51.686;8.684;2023-07-30T03:51:42;99310.00;;;15.00
29423;BMP180;16399;51.686;8.684;2023-07-30T03:54:44;99311.00;;;14.90
29423;BMP180;16399;51.686;8.684;2023-07-30T03:57:46;99314.00;;;14.90
29423;BMP180;16399;51.686;8.684;2023-07-30T04:00:49;99309.00;;;14.90
29423;BMP180;16399;51.686;8.684;2023-07-30T04:03:51;99314.00;;;14.90
29423;BMP180;16399;51.686;8.684;2023-07-30T04:06:53;99309.00;;;14.80
29423;BMP180;16399;51.686;8.684;2023-07-30T04:09:56;99311.00;;;14.80
29423;BMP180;16399;51.686;8.684;2023-07-30T04:12:59;99313.00;;;14.80
29423;BMP180;16399;51.686;8.684;2023-07-30T04:16:01;99319.00;;;14.80
29423;BMP180;16399;51.686;8.684;2023-07-30T04:19:03;99312.00;;;14.90
29423;BMP180;16399;51.686;8.684;2023-07-30T04:22:06;99297.00;;;15.00
29423;BMP180;16399;51.686;8.684;2023-07-30T04:25:08;99292.00;;;15.20
29423;BMP180;16399;51.686;8.684;2023-07-30T04:28:12;99296.00;;;15.40
29423;BMP180;16399;51.686;8.684;2023-07-30T04:31:14;99306.00;;;15.50
29423;BMP180;16399;51.686;8.684;2023-07-30T04:34:16;99291.00;;;15.50
29423;BMP180;16399;51.686;8.684;2023-07-30T04:37:18;99305.00;;;15.40
29423;BMP180;16399;51.686;8.684;2023-07-30T04:40:21;99299.00;;;15.40
29423;BMP180;16399;51.686;8.684;2023-07-30T04:43:23;99296.00;;;15.40
29423;BMP180;16399;51.686;8.684;2023-07-30T04:46:25;99299.00;;;15.40
29423;BMP180;16399;51.686;8.684;2023-07-30T04:49:28;99299.00;;;15.90
29423;BMP180;16399;51.686;8.684;2023-07-30T04:52:30;99291.00;;;16.50
29423;BMP180;16399;51.686;8.684;2023-07-30T04:55:32;99289.00;;;17.20
29423;BMP180;16399;51.686;8.684;2023-07-30T04:58:35;99290.00;;;17.70
29423;BMP180;16399;51.686;8.684;2023-07-30T05:01:37;99291.00;;;18.00
29423;BMP180;16399;51.686;8.684;2023-07-30T05:04:39;99288.00;;;18.30
29423;BMP180;16399;51.686;8.684;2023-07-30T05:07:42;99290.00;;;18.60
29423;BMP180;16399;51.686;8.684;2023-07-30T05:10:44;99300.00;;;18.60
29423;BMP180;16399;51.686;8.684;2023-07-30T05:13:46;99290.00;;;18.40
29423;BMP180;16399;51.686;8.684;2023-07-30T05:16:49;99297.00;;;18.50
29423;BMP180;16399;51.686;8.684;2023-07-30T05:19:51;99299.00;;;18.20
29423;BMP180;16399;51.686;8.684;2023-07-30T05:22:53;99311.00;;;17.80
29423;BMP180;16399;51.686;8.684;2023-07-30T05:25:55;99308.00;;;17.40
29423;BMP180;16399;51.686;8.684;2023-07-30T05:28:58;99297.00;;;17.10
29423;BMP180;16399;51.686;8.684;2023-07-30T05:32:00;99313.00;;;17.00
29423;BMP180;16399;51.686;8.684;2023-07-30T05:35:02;99307.00;;;17.00
29423;BMP180;16399;51.686;8.684;2023-07-30T05:38:05;99316.00;;;17.00
29423;BMP180;16399;51.686;8.684;2023-07-30T05:41:07;99314.00;;;17.00
29423;BMP180;16399;51.686;8.684;2023-07-30T05:44:09;99319.00;;;16.90
29423;BMP180;16399;51.686;8.684;2023-07-30T05:47:11;99309.00;;;16.90
29423;BMP180;16399;51.686;8.684;2023-07-30T05:50:14;99313.00;;;16.80
29423;BMP180;16399;51.686;8.684;2023-07-30T05:53:16;99315.00;;;16.80
29423;BMP180;16399;51.686;8.684;2023-07-30T05:56:18;99322.00;;;16.80
29423;BMP180;16399;51.686;8.684;2023-07-30T05:59:21;99317.00;;;16.90
29423;BMP180;16399;51.686;8.684;2023-07-30T06:02:23;99324.00;;;17.00
29423;BMP180;16399;51.686;8.684;2023-07-30T06:05:25;99320.00;;;17.00
29423;BMP180;16399;51.686;8.684;2023-07-30T06:08:28;99329.00;;;17.00
29423;BMP180;16399;51.686;8.684;2023-07-30T06:11:31;99326.00;;;17.00
29423;BMP180;16399;51.686;8.684;2023-07-30T06:14:33;99318.00;;;17.10
29423;BMP180;16399;51.686;8.684;2023-07-30T06:17:36;99328.00;;;17.10
29423;BMP180;16399;51.686;8.684;2023-07-30T06:20:38;99328.00;;;17.10
29423;BMP180;16399;51.686;8.684;2023-07-30T06:23:40;99324.00;;;17.20
29423;BMP180;16399;51.686;8.684;2023-07-30T06:26:42;99321.00;;;17.30
29423;BMP180;16399;51.686;8.684;2023-07-30T06:29:45;99326.00;;;17.40
29423;BMP180;16399;51.686;8.684;2023-07-30T06:32:47;99316.00;;;17.40
29423;BMP180;16399;51.686;8.684;2023-07-30T06:35:49;99317.00;;;17.50
29423;BMP180;16399;51.686;8.684;2023-07-30T06:38:52;99321.00;;;17.60
29423;BMP180;16399;51.686;8.684;2023-07-30T06:41:54;99319.00;;;17.80
29423;BMP180;16399;51.686;8.684;2023-07-30T06:44:56;99331.00;;;17.90
29423;BMP180;16399;51.686;8.684;2023-07-30T06:47:59;99322.00;;;18.00
29423;BMP180;16399;51.686;8.684;2023-07-30T06:51:01;99329.00;;;18.10
29423;BMP180;16399;51.686;8.684;2023-07-30T06:54:03;99326.00;;;18.10
29423;BMP180;16399;51.686;8.684;2023-07-30T06:57:06;99330.00;;;18.20
29423;BMP180;16399;51.686;8.684;2023-07-30T07:00:09;99332.00;;;18.30
29423;BMP180;16399;51.686;8.684;2023-07-30T07:03:11;99342.00;;;18.40
29423;BMP180;16399;51.686;8.684;2023-07-30T07:06:13;99346.00;;;18.30
29423;BMP180;16399;51.686;8.684;2023-07-30T07:09:15;99343.00;;;18.30
29423;BMP180;16399;51.686;8.684;2023-07-30T07:12:19;99341.00;;;18.30
29423;BMP180;16399;51.686;8.684;2023-07-30T07:15:21;99338.00;;;18.30
29423;BMP180;16399;51.686;8.684;2023-07-30T07:18:23;99341.00;;;18.30
29423;BMP180;16399;51.686;8.684;2023-07-30T07:21:25;99342.00;;;18.20
29423;BMP180;16399;51.686;8.684;2023-07-30T07:24:28;99352.00;;;18.20
29423;BMP180;16399;51.686;8.684;2023-07-30T07:27:30;99345.00;;;18.20
29423;BMP180;16399;51.686;8.684;2023-07-30T07:30:37;99349.00;;;18.20
29423;BMP180;16399;51.686;8.684;2023-07-30T07:33:40;99361.00;;;18.20
29423;BMP180;16399;51.686;8.684;2023-07-30T07:36:42;99369.00;;;18.10
29423;BMP180;16399;51.686;8.684;2023-07-30T07:39:45;99369.00;;;18.10
29423;BMP180;16399;51.686;8.684;2023-07-30T07:42:48;99370.00;;;18.10
29423;BMP180;16399;51.686;8.684;2023-07-30T07:45:50;99379.00;;;18.10
29423;BMP180;16399;51.686;8.684;2023-07-30T07:48:52;99373.00;;;18.10
29423;BMP180;16399;51.686;8.684;2023-07-30T07:51:54;99382.00;;;18.10
29423;BMP180;16399;51.686;8.684;2023-07-30T07:54:57;99372.00;;;18.00
29423;BMP180;16399;51.686;8.684;2023-07-30T07:57:59;99371.00;;;17.90
29423;BMP180;16399;51.686;8.684;2023-07-30T08:01:01;99374.00;;;17.80
29423;BMP180;16399;51.686;8.684;2023-07-30T08:04:04;99374.00;;;17.80
29423;BMP180;16399;51.686;8.684;2023-07-30T08:07:06;99366.00;;;17.70
29423;BMP180;16399;51.686;8.684;2023-07-30T08:10:08;99370.00;;;17.80
29423;BMP180;16399;51.686;8.684;2023-07-30T08:13:12;99375.00;;;17.80
29423;BMP180;16399;51.686;8.684;2023-07-30T08:16:14;99380.00;;;17.80
29423;BMP180;16399;51.686;8.684;2023-07-30T08:19:17;99380.00;;;17.90
29423;BMP180;16399;51.686;8.684;2023-07-30T08:22:19;99371.00;;;18.00
29423;BMP180;16399;51.686;8.684;2023-07-30T08:25:21;99371.00;;;18.10
29423;BMP180;16399;51.686;8.684;2023-07-30T08:28:24;99376.00;;;18.10
29423;BMP180;16399;51.686;8.684;2023-07-30T08:31:26;99377.00;;;18.00
29423;BMP180;16399;51.686;8.684;2023-07-30T08:34:28;99384.00;;;18.00
29423;BMP180;16399;51.686;8.684;2023-07-30T08:37:31;99383.00;;;18.00
29423;BMP180;16399;51.686;8.684;2023-07-30T08:40:33;99389.00;;;18.00
29423;BMP180;16399;51.686;8.684;2023-07-30T08:43:35;99408.00;;;17.90
29423;BMP180;16399;51.686;8.684;2023-07-30T08:46:38;99394.00;;;17.70
29423;BMP180;16399;51.686;8.684;2023-07-30T08:49:40;99400.00;;;17.60
29423;BMP180;16399;51.686;8.684;2023-07-30T08:52:43;99396.00;;;17.50
29423;BMP180;16399;51.686;8.684;2023-07-30T08:55:46;99399.00;;;17.40
29423;BMP180;16399;51.686;8.684;2023-07-30T08:58:50;99406.00;;;17.40
29423;BMP180;16399;51.686;8.684;2023-07-30T09:01:54;99396.00;;;17.40
29423;BMP180;16399;51.686;8.684;2023-07-30T09:05:18;99405.00;;;17.40
29423;BMP180;16399;51.686;8.684;2023-07-30T09:08:20;99406.00;;;17.40
29423;BMP180;16399;51.686;8.684;2023-07-30T09:11:27;99401.00;;;17.50
29423;BMP180;16399;51.686;8.684;2023-07-30T09:14:29;99413.00;;;17.70
29423;BMP180;16399;51.686;8.684;2023-07-30T09:17:32;99414.00;;;17.80
29423;BMP180;16399;51.686;8.684;2023-07-30T09:20:39;99421.00;;;17.90
29423;BMP180;16399;51.686;8.684;2023-07-30T09:23:43;99414.00;;;17.90
29423;BMP180;16399;51.686;8.684;2023-07-30T09:26:46;99419.00;;;17.90
29423;BMP180;16399;51.686;8.684;2023-07-30T09:29:55;99425.00;;;18.00
29423;BMP180;16399;51.686;8.684;2023-07-30T09:32:57;99424.00;;;18.00
29423;BMP180;16399;51.686;8.684;2023-07-30T09:36:03;99426.00;;;17.90
29423;BMP180;16399;51.686;8.684;2023-07-30T09:39:14;99387.00;;;17.90
29423;BMP180;16399;51.686;8.684;2023-07-30T09:42:11;99418.00;;;17.90
29423;BMP180;16399;51.686;8.684;2023-07-30T09:45:21;99426.00;;;18.00
29423;BMP180;16399;51.686;8.684;2023-07-30T09:48:24;99417.00;;;18.20
29423;BMP180;16399;51.686;8.684;2023-07-30T09:51:27;99424.00;;;18.40
29423;BMP180;16399;51.686;8.684;2023-07-30T09:54:29;99428.00;;;18.60
29423;BMP180;16399;51.686;8.684;2023-07-30T09:57:33;99433.00;;;18.70
29423;BMP180;16399;51.686;8.684;2023-07-30T10:00:36;99425.00;;;18.70
29423;BMP180;16399;51.686;8.684;2023-07-30T10:03:38;99434.00;;;18.60
29423;BMP180;16399;51.686;8.684;2023-07-30T10:06:51;99437.00;;;18.50
29423;BMP180;16399;51.686;8.684;2023-07-30T10:09:51;99437.00;;;18.50
29423;BMP180;16399;51.686;8.684;2023-07-30T10:12:57;99443.00;;;18.50
29423;BMP180;16399;51.686;8.684;2023-07-30T10:15:59;99458.00;;;18.50
29423;BMP180;16399;51.686;8.684;2023-07-30T10:19:02;99456.00;;;18.50
29423;BMP180;16399;51.686;8.684;2023-07-30T10:25:48;99463.00;;;18.40
29423;BMP180;16399;51.686;8.684;2023-07-30T10:29:09;99466.00;;;18.40
29423;BMP180;16399;51.686;8.684;2023-07-30T10:31:57;99452.00;;;18.40
29423;BMP180;16399;51.686;8.684;2023-07-30T10:35:01;99460.00;;;18.40
29423;BMP180;16399;51.686;8.684;2023-07-30T10:38:27;99457.00;;;18.40
29423;BMP180;16399;51.686;8.684;2023-07-30T10:41:26;99452.00;;;18.50
29423;BMP180;16399;51.686;8.684;2023-07-30T10:44:34;99445.00;;;18.60
29423;BMP180;16399;51.686;8.684;2023-07-30T10:47:36;99436.00;;;18.70
29423;BMP180;16399;51.686;8.684;2023-07-30T10:50:39;99438.00;;;18.90
29423;BMP180;16399;51.686;8.684;2023-07-30T10:53:45;99435.00;;;19.20
29423;BMP180;16399;51.686;8.684;2023-07-30T10:56:48;99434.00;;;19.50
29423;BMP180;16399;51.686;8.684;2023-07-30T10:59:50;99431.00;;;19.90
29423;BMP180;16399;51.686;8.684;2023-07-30T11:02:55;99434.00;;;20.10
29423;BMP180;16399;51.686;8.684;2023-07-30T11:05:57;99425.00;;;20.20
29423;BMP180;16399;51.686;8.684;2023-07-30T11:09:00;99425.00;;;20.30
29423;BMP180;16399;51.686;8.684;2023-07-30T11:12:02;99430.00;;;20.50
29423;BMP180;16399;51.686;8.684;2023-07-30T11:15:06;99432.00;;;20.70
29423;BMP180;16399;51.686;8.684;2023-07-30T11:18:08;99422.00;;;20.90
29423;BMP180;16399;51.686;8.684;2023-07-30T11:21:12;99416.00;;;21.00
29423;BMP180;16399;51.686;8.684;2023-07-30T11:24:15;99411.00;;;21.10
29423;BMP180;16399;51.686;8.684;2023-07-30T11:27:17;99423.00;;;21.10
29423;BMP180;16399;51.686;8.684;2023-07-30T11:30:20;99419.00;;;21.10
29423;BMP180;16399;51.686;8.684;2023-07-30T11:33:22;99416.00;;;21.20
29423;BMP180;16399;51.686;8.684;2023-07-30T11:36:26;99410.00;;;21.40
29423;BMP180;16399;51.686;8.684;2023-07-30T11:39:28;99404.00;;;21.60
29423;BMP180;16399;51.686;8.684;2023-07-30T11:42:31;99411.00;;;21.90
29423;BMP180;16399;51.686;8.684;2023-07-30T11:45:34;99401.00;;;22.10
29423;BMP180;16399;51.686;8.684;2023-07-30T11:48:37;99411.00;;;22.20
29423;BMP180;16399;51.686;8.684;2023-07-30T11:51:39;99389.00;;;22.30
29423;BMP180;16399;51.686;8.684;2023-07-30T11:54:43;99404.00;;;22.40
29423;BMP180;16399;51.686;8.684;2023-07-30T11:57:45;99390.00;;;22.40
29423;BMP180;16399;51.686;8.684;2023-07-30T12:00:48;99396.00;;;22.40
29423;BMP180;16399;51.686;8.684;2023-07-30T12:03:53;99398.00;;;22.40
29423;BMP180;16399;51.686;8.684;2023-07-30T12:06:55;99395.00;;;22.40
29423;BMP180;16399;51.686;8.684;2023-07-30T12:10:12;99393.00;;;22.40
29423;BMP180;16399;51.686;8.684;2023-07-30T12:13:16;99390.00;;;22.50
29423;BMP180;16399;51.686;8.684;2023-07-30T12:16:18;99394.00;;;22.70
29423;BMP180;16399;51.686;8.684;2023-07-30T12:19:21;99397.00;;;22.80
29423;BMP180;16399;51.686;8.684;2023-07-30T12:22:23;99406.00;;;22.70
29423;BMP180;16399;51.686;8.684;2023-07-30T12:25:25;99404.00;;;22.70
29423;BMP180;16399;51.686;8.684;2023-07-30T12:28:27;99397.00;;;22.70
29423;BMP180;16399;51.686;8.684;2023-07-30T12:31:30;99400.00;;;22.80
29423;BMP180;16399;51.686;8.684;2023-07-30T12:34:32;99391.00;;;22.80
29423;BMP180;16399;51.686;8.684;2023-07-30T12:37:34;99398.00;;;22.90
29423;BMP180;16399;51.686;8.684;2023-07-30T12:40:38;99409.00;;;22.80
29423;BMP180;16399;51.686;8.684;2023-07-30T12:43:40;99400.00;;;22.90
29423;BMP180;16399;51.686;8.684;2023-07-30T12:46:42;99408.00;;;22.80
29423;BMP180;16399;51.686;8.684;2023-07-30T12:49:45;99411.00;;;22.60
29423;BMP180;16399;51.686;8.684;2023-07-30T12:52:47;99415.00;;;22.60
29423;BMP180;16399;51.686;8.684;2023-07-30T12:55:49;99421.00;;;22.50
29423;BMP180;16399;51.686;8.684;2023-07-30T12:58:52;99411.00;;;22.50
29423;BMP180;16399;51.686;8.684;2023-07-30T13:01:54;99419.00;;;22.60
29423;BMP180;16399;51.686;8.684;2023-07-30T13:04:57;99415.00;;;22.70
29423;BMP180;16399;51.686;8.684;2023-07-30T13:07:59;99409.00;;;22.80
29423;BMP180;16399;51.686;8.684;2023-07-30T13:11:01;99407.00;;;22.80
29423;BMP180;16399;51.686;8.684;2023-07-30T13:14:04;99414.00;;;22.90
29423;BMP180;16399;51.686;8.684;2023-07-30T13:17:06;99407.00;;;22.80
29423;BMP180;16399;51.686;8.684;2023-07-30T13:20:08;99419.00;;;22.70
29423;BMP180;16399;51.686;8.684;2023-07-30T13:23:11;99424.00;;;22.50
29423;BMP180;16399;51.686;8.684;2023-07-30T13:26:13;99420.00;;;22.30
29423;BMP180;16399;51.686;8.684;2023-07-30T13:29:15;99429.00;;;22.10
29423;BMP180;16399;51.686;8.684;2023-07-30T13:32:18;99422.00;;;22.00
29423;BMP180;16399;51.686;8.684;2023-07-30T13:35:20;99428.00;;;21.90
29423;BMP180;16399;51.686;8.684;2023-07-30T13:38:22;99438.00;;;21.70
29423;BMP180;16399;51.686;8.684;2023-07-30T13:41:26;99433.00;;;21.60
29423;BMP180;16399;51.686;8.684;2023-07-30T13:44:28;99437.00;;;21.50
29423;BMP180;16399;51.686;8.684;2023-07-30T13:47:31;99436.00;;;21.40
29423;BMP180;16399;51.686;8.684;2023-07-30T13:50:33;99433.00;;;21.40
29423;BMP180;16399;51.686;8.684;2023-07-30T13:53:35;99436.00;;;21.40
29423;BMP180;16399;51.686;8.684;2023-07-30T13:56:39;99440.00;;;21.50
29423;BMP180;16399;51.686;8.684;2023-07-30T13:59:42;99448.00;;;21.40
29423;BMP180;16399;51.686;8.684;2023-07-30T14:02:45;99442.00;;;21.40
29423;BMP180;16399;51.686;8.684;2023-07-30T14:05:48;99444.00;;;21.30
29423;BMP180;16399;51.686;8.684;2023-07-30T14:08:50;99448.00;;;21.30
29423;BMP180;16399;51.686;8.684;2023-07-30T14:11:53;99455.00;;;21.10
29423;BMP180;16399;51.686;8.684;2023-07-30T14:14:55;99468.00;;;21.00
29423;BMP180;16399;51.686;8.684;2023-07-30T14:17:58;99474.00;;;20.70
29423;BMP180;16399;51.686;8.684;2023-07-30T14:21:00;99477.00;;;20.40
29423;BMP180;16399;51.686;8.684;2023-07-30T14:24:04;99470.00;;;20.10
29423;BMP180;16399;51.686;8.684;2023-07-30T14:27:06;99463.00;;;19.70
29423;BMP180;16399;51.686;8.684;2023-07-30T14:30:10;99475.00;;;19.60
29423;BMP180;16399;51.686;8.684;2023-07-30T14:33:13;99483.00;;;19.50
29423;BMP180;16399;51.686;8.684;2023-07-30T14:36:15;99486.00;;;19.40
29423;BMP180;16399;51.686;8.684;2023-07-30T14:39:17;99477.00;;;19.30
29423;BMP180;16399;51.686;8.684;2023-07-30T14:42:20;99485.00;;;19.30
29423;BMP180;16399;51.686;8.684;2023-07-30T14:45:23;99486.00;;;19.40
29423;BMP180;16399;51.686;8.684;2023-07-30T14:48:25;99482.00;;;19.50
29423;BMP180;16399;51.686;8.684;2023-07-30T14:51:27;99485.00;;;19.70
29423;BMP180;16399;51.686;8.684;2023-07-30T14:54:30;99481.00;;;19.80
29423;BMP180;16399;51.686;8.684;2023-07-30T14:57:32;99483.00;;;19.90
29423;BMP180;16399;51.686;8.684;2023-07-30T15:00:34;99485.00;;;19.90
29423;BMP180;16399;51.686;8.684;2023-07-30T15:03:37;99489.00;;;20.10
29423;BMP180;16399;51.686;8.684;2023-07-30T15:06:39;99490.00;;;20.30
29423;BMP180;16399;51.686;8.684;2023-07-30T15:09:41;99488.00;;;20.40
29423;BMP180;16399;51.686;8.684;2023-07-30T15:12:45;99473.00;;;20.60
29423;BMP180;16399;51.686;8.684;2023-07-30T15:15:47;99475.00;;;20.80
29423;BMP180;16399;51.686;8.684;2023-07-30T15:18:50;99474.00;;;21.00
29423;BMP180;16399;51.686;8.684;2023-07-30T15:21:52;99464.00;;;21.00
29423;BMP180;16399;51.686;8.684;2023-07-30T15:24:54;99453.00;;;21.10
29423;BMP180;16399;51.686;8.684;2023-07-30T15:27:57;99445.00;;;21.10
29423;BMP180;16399;51.686;8.684;2023-07-30T15:31:01;99452.00;;;21.30
29423;BMP180;16399;51.686;8.684;2023-07-30T15:34:03;99443.00;;;21.30
29423;BMP180;16399;51.686;8.684;2023-07-30T15:37:06;99440.00;;;21.40
29423;BMP180;16399;51.686;8.684;2023-07-30T15:40:09;99451.00;;;21.40
29423;BMP180;16399;51.686;8.684;2023-07-30T15:43:11;99453.00;;;21.50
29423;BMP180;16399;51.686;8.684;2023-07-30T15:46:14;99450.00;;;21.50
29423;BMP180;16399;51.686;8.684;2023-07-30T15:49:19;99457.00;;;21.50
29423;BMP180;16399;51.686;8.684;2023-07-30T15:52:21;99468.00;;;21.60
29423;BMP180;16399;51.686;8.684;2023-07-30T15:55:23;99445.00;;;21.50
29423;BMP180;16399;51.686;8.684;2023-07-30T15:58:25;99458.00;;;21.50
29423;BMP180;16399;51.686;8.684;2023-07-30T16:01:28;99462.00;;;21.40
29423;BMP180;16399;51.686;8.684;2023-07-30T16:04:30;99446.00;;;21.30
29423;BMP180;16399;51.686;8.684;2023-07-30T16:07:32;99440.00;;;21.30
29423;BMP180;16399;51.686;8.684;2023-07-30T16:10:35;99445.00;;;21.20
29423;BMP180;16399;51.686;8.684;2023-07-30T16:13:37;99447.00;;;21.10
29423;BMP180;16399;51.686;8.684;2023-07-30T16:16:39;99447.00;;;21.10
29423;BMP180;16399;51.686;8.684;2023-07-30T16:19:42;99453.00;;;21.00
29423;BMP180;16399;51.686;8.684;2023-07-30T16:22:45;99464.00;;;20.90
29423;BMP180;16399;51.686;8.684;2023-07-30T16:25:47;99469.00;;;20.70
29423;BMP180;16399;51.686;8.684;2023-07-30T16:28:49;99469.00;;;20.60
29423;BMP180;16399;51.686;8.684;2023-07-30T16:31:52;99473.00;;;20.50
29423;BMP180;16399;51.686;8.684;2023-07-30T16:34:54;99478.00;;;20.50
29423;BMP180;16399;51.686;8.684;2023-07-30T16:37:56;99468.00;;;20.40
29423;BMP180;16399;51.686;8.684;2023-07-30T16:40:59;99462.00;;;20.50
29423;BMP180;16399;51.686;8.684;2023-07-30T16:44:04;99471.00;;;20.70
29423;BMP180;16399;51.686;8.684;2023-07-30T16:47:06;99474.00;;;20.90
29423;BMP180;16399;51.686;8.684;2023-07-30T16:50:08;99487.00;;;21.00
29423;BMP180;16399;51.686;8.684;2023-07-30T16:53:11;99470.00;;;21.00
29423;BMP180;16399;51.686;8.684;2023-07-30T16:56:14;99477.00;;;21.00
29423;BMP180;16399;51.686;8.684;2023-07-30T16:59:17;99475.00;;;20.80
29423;BMP180;16399;51.686;8.684;2023-07-30T17:02:19;99492.00;;;20.70
29423;BMP180;16399;51.686;8.684;2023-07-30T17:05:22;99488.00;;;20.60
29423;BMP180;16399;51.686;8.684;2023-07-30T17:08:24;99486.00;;;20.50
29423;BMP180;16399;51.686;8.684;2023-07-30T17:11:27;99495.00;;;20.50
29423;BMP180;16399;51.686;8.684;2023-07-30T17:14:30;99489.00;;;20.50
29423;BMP180;16399;51.686;8.684;2023-07-30T17:17:32;99500.00;;;20.50
29423;BMP180;16399;51.686;8.684;2023-07-30T17:20:34;99497.00;;;20.50
29423;BMP180;16399;51.686;8.684;2023-07-30T17:23:36;99489.00;;;20.50
29423;BMP180;16399;51.686;8.684;2023-07-30T17:26:39;99485.00;;;20.50
29423;BMP180;16399;51.686;8.684;2023-07-30T17:29:41;99497.00;;;20.50
29423;BMP180;16399;51.686;8.684;2023-07-30T17:32:44;99501.00;;;20.50
29423;BMP180;16399;51.686;8.684;2023-07-30T17:35:52;99503.00;;;20.50